Time;durP1;ratioP1;P1;durP2;ratioP2;P2;SDS_P1;SDS_P2;PMS_P1;PMS_P2;Temp;Humidity;BMP_temperature;BMP_pressure;BME280_temperature;BME280_humidity;BME280_pressure;Samples;Min_cycle;Max_cycle;Signal;HPM_P1;HPM_P2
2023/04/18 05:01:17;;;;;;;;;35.00;32.00;;;;;11.47;66.58;-16533.31;5561417;23;45852;-84
2023/04/18 05:03:42;;;;;;;;;37.67;32.67;;;;;11.66;66.88;-16537.38;4955964;28;45504;-83
2023/04/18 05:06:37;;;;;;;;;35.33;31.67;;;;;11.07;66.82;-16193.31;4948746;28;46267;-85
2023/04/18 05:09:13;;;;;;;;;36.00;31.67;;;;;12.35;66.87;-16552.16;4874433;29;45910;-86
2023/04/18 05:11:48;;;;;;;;;39.33;34.00;;;;;11.74;67.10;-16539.16;4875071;29;45620;-87
2023/04/18 05:17:54;;;;;;;;;37.33;32.67;;;;;11.42;67.33;-16863.75;4960290;28;45897;-86
2023/04/18 05:20:23;;;;;;;;;37.00;32.67;;;;;11.15;67.08;-16526.47;4964849;28;46984;-86
2023/04/18 05:26:16;;;;;;;;;37.00;33.67;;;;;10.87;67.08;-16851.66;5031545;23;45441;-91
2023/04/18 05:28:41;;;;;;;;;38.33;31.67;;;;;11.69;67.10;-16869.75;4968914;28;45907;-83
2023/04/18 05:31:44;;;;;;;;;39.33;32.00;;;;;12.68;67.05;-16891.53;5069083;23;47794;-88
2023/04/18 05:34:09;;;;;;;;;36.00;32.75;;;;;11.07;67.21;-16856.06;4963953;28;45424;-80
2023/04/18 05:36:34;;;;;;;;;40.00;32.67;;;;;11.40;66.95;-16863.31;4948030;28;45461;-84
2023/04/18 05:39:00;;;;;;;;;39.33;31.67;;;;;12.36;67.44;-16884.56;4945559;28;46994;-83
2023/04/18 05:41:25;;;;;;;;;11.00;8.00;;;;;12.66;67.48;-17223.41;4946006;28;45426;-83
2023/04/18 05:43:51;;;;;;;;;41.00;34.50;;;;;12.20;67.62;-17212.88;4943778;28;45684;-83
2023/04/18 05:46:16;;;;;;;;;35.67;29.67;;;;;12.09;67.56;-17210.34;4961743;28;45544;-83
2023/04/18 05:48:41;;;;;;;;;40.00;33.75;;;;;11.37;67.54;-17194.13;4975901;28;46147;-84
2023/04/18 05:51:07;;;;;;;;;48.50;39.00;;;;;11.04;67.05;-17186.72;4944862;28;54666;-85
2023/04/18 05:53:32;;;;;;;;;43.25;34.50;;;;;11.91;67.40;-17206.41;4958043;28;45786;-85
2023/04/18 05:55:58;;;;;;;;;36.33;31.33;;;;;12.16;67.42;-17211.94;4970780;28;45472;-86
2023/04/18 06:04:36;;;;;;;;;37.67;32.33;;;;;11.57;67.51;-17530.22;4964645;28;45964;-86
2023/04/18 06:07:05;;;;;;;;;38.00;31.33;;;;;11.23;67.18;-17522.28;4948074;28;45508;-86
2023/04/18 06:09:30;;;;;;;;;39.67;34.67;;;;;11.29;67.40;-17523.72;4957166;28;45900;-84
2023/04/18 06:11:56;;;;;;;;;36.25;31.75;;;;;12.01;67.28;-17540.53;4953428;28;45801;-85
2023/04/18 06:14:22;;;;;;;;;37.50;33.00;;;;;12.18;67.34;-17544.31;4972151;28;45882;-86
2023/04/18 06:16:47;;;;;;;;;38.00;31.67;;;;;12.75;67.39;-17557.44;5085455;23;46110;-87
2023/04/18 06:19:13;;;;;;;;;30.50;29.50;;;;;11.43;67.25;-17527.03;4967390;28;45488;-88
2023/04/18 06:21:54;;;;;;;;;35.67;31.67;;;;;12.83;67.78;-17559.34;4964570;28;45958;-89
2023/04/18 06:30:53;;;;;;;;;29.67;28.00;;;;;11.91;67.58;-17869.88;4929979;28;46137;-88
2023/04/18 06:35:53;;;;;;;;;34.33;29.33;;;;;11.51;67.74;-17860.31;4953096;23;67835;-86
2023/04/18 06:38:21;;;;;;;;;37.33;33.00;;;;;11.31;67.15;-17855.59;4920983;28;45544;-86
2023/04/18 06:43:24;;;;;;;;;34.00;30.67;;;;;12.02;67.42;-17872.44;4924133;23;71376;-89
2023/04/18 06:45:50;;;;;;;;;35.33;32.67;;;;;12.90;67.61;-17893.25;4915480;28;45864;-91
2023/04/18 06:48:40;;;;;;;;;38.00;30.00;;;;;12.92;67.52;-17893.72;4919452;28;45364;-92
2023/04/18 06:51:05;;;;;;;;;34.67;30.33;;;;;11.57;67.54;-17861.78;4924284;28;45558;-88
2023/04/18 06:53:31;;;;;;;;;37.67;30.33;;;;;12.55;67.42;-17885.03;4910337;28;45584;-88
2023/04/18 06:56:32;;;;;;;;;33.67;31.00;;;;;13.00;67.63;-17895.56;4943504;23;45598;-90
2023/04/18 06:59:00;;;;;;;;;38.67;32.33;;;;;13.01;67.34;-18228.06;4955250;23;45559;-91
2023/04/18 07:01:26;;;;;;;;;42.67;32.33;;;;;11.33;67.21;-18187.59;5146248;23;46228;-88
2023/04/18 07:03:51;;;;;;;;;34.67;31.67;;;;;12.81;67.80;-18223.38;4952438;23;45587;-85
2023/04/18 07:06:30;;;;;;;;;39.33;31.67;;;;;13.05;67.60;-18229.19;4936026;28;45928;-88
2023/04/18 07:09:04;;;;;;;;;41.00;32.67;;;;;11.69;67.55;-18196.16;4941062;28;45553;-91
2023/04/18 07:33:55;;;;;;;;;39.33;30.33;;;;;12.53;67.54;-18880.41;4967420;23;45401;-89
2023/04/18 07:36:27;;;;;;;;;38.33;34.33;;;;;12.62;67.62;-18882.75;5179500;23;45706;-89
2023/04/18 07:41:43;;;;;;;;;37.00;33.00;;;;;12.10;67.55;-18869.69;5119390;23;45591;-89
2023/04/18 08:01:17;;;;;;;;;37.67;35.33;;;;;13.70;66.93;-18909.97;5519822;23;46305;-92
2023/04/18 08:03:48;;;;;;;;;47.75;40.50;;;;;13.84;67.26;-18913.47;4940921;28;45429;-95
2023/04/18 08:09:28;;;;;;;;;38.67;33.00;;;;;12.71;67.04;-18884.94;5111441;23;73945;-96
2023/04/18 08:11:55;;;;;;;;;35.00;31.67;;;;;13.37;66.94;-18901.59;4904537;28;45482;-94
2023/04/18 08:16:56;;;;;;;;;36.67;33.67;;;;;12.58;66.52;-18881.84;5480692;23;46786;-95
2023/04/18 08:19:22;;;;;;;;;35.33;29.67;;;;;12.82;66.58;-18887.78;4985825;28;46484;-95
2023/04/18 08:21:49;;;;;;;;;33.50;31.00;;;;;13.88;66.64;-18914.50;4991970;28;45455;-95
2023/04/18 08:27:37;;;;;;;;;30.33;29.00;;;;;13.93;66.49;-19248.59;5266373;23;45410;-94
2023/04/18 08:31:03;;;;;;;;;31.00;31.00;;;;;14.64;66.72;-19266.63;4962262;28;45722;-94
2023/04/18 08:33:28;;;;;;;;;20.33;20.33;;;;;14.74;66.61;-19269.25;4919961;28;45508;-95
2023/04/18 08:35:54;;;;;;;;;29.67;27.33;;;;;14.84;66.13;-19271.75;4919606;28;45606;-93
2023/04/18 08:38:19;;;;;;;;;41.33;34.67;;;;;14.02;66.49;-19250.69;4903735;28;45522;-94
2023/04/18 08:41:03;;;;;;;;;30.00;27.33;;;;;14.15;66.38;-19254.25;4919757;28;46962;-93
2023/04/18 08:43:30;;;;;;;;;34.33;31.00;;;;;14.15;66.28;-19254.13;4919703;28;45493;-92
2023/04/18 08:46:10;;;;;;;;;32.33;31.00;;;;;14.55;66.24;-19264.38;4919186;28;45466;-93
2023/04/18 08:57:52;;;;;;;;;38.67;36.00;;;;;14.79;65.32;-19270.56;4992822;23;67885;-96
2023/04/18 09:12:18;;;;;;;;;28.00;24.67;;;;;15.93;65.07;-19299.75;5169284;23;45533;-91
2023/04/18 09:14:53;;;;;;;;;31.67;27.67;;;;;15.46;64.90;-19287.66;4959350;28;46539;-91
2023/04/18 09:19:53;;;;;;;;;26.33;26.33;;;;;14.83;64.45;-19271.50;5002572;23;67483;-95
2023/04/18 09:22:18;;;;;;;;;23.33;22.33;;;;;15.84;64.20;-19297.53;4960313;28;45363;-95
2023/04/18 09:25:28;;;;;;;;;27.00;21.33;;;;;16.48;64.34;-19313.78;4959600;28;46122;-93
2023/04/18 09:28:25;;;;;;;;;28.33;22.67;;;;;16.60;64.08;-19316.94;4958538;28;45395;-89
2023/04/18 09:30:51;;;;;;;;;26.67;24.33;;;;;15.38;64.29;-19285.69;5026476;23;46108;-90
2023/04/18 09:41:59;;;;;;;;;30.00;25.67;;;;;17.42;63.19;-19672.44;5312035;23;47133;-87
2023/04/18 09:50:48;;;;;;;;;24.67;23.33;;;;;18.03;61.06;-19688.38;5075164;23;45500;-89
2023/04/18 09:53:20;;;;;;;;;26.00;25.00;;;;;18.68;60.40;-19705.47;4946909;28;45519;-85
2023/04/18 09:58:45;;;;;;;;;28.67;25.00;;;;;20.45;58.55;-19415.50;4956312;28;45828;-91
2023/04/18 10:05:05;;;;;;;;;27.67;24.33;;;;;21.74;57.17;-19448.25;5471073;23;45468;-96
2023/04/18 10:14:38;;;;;;;;;25.67;23.33;;;;;21.78;54.35;-16079.34;4862293;23;45864;-93
2023/04/18 10:17:56;;;;;;;;;23.67;21.00;;;;;22.30;53.40;-15414.84;4863427;29;45467;-88
2023/04/18 10:20:29;;;;;;;;;28.00;23.67;;;;;23.23;51.63;-11036.28;4930295;23;45394;-86
2023/04/18 10:25:46;;;;;;;;;29.67;24.33;;;;;23.87;50.32;-9350.13;4930771;28;45330;-88
2023/04/18 10:28:26;;;;;;;;;25.00;20.00;;;;;23.91;50.74;-7655.72;4918978;28;45550;-87
2023/04/18 10:31:02;;;;;;;;;25.00;21.67;;;;;24.53;50.56;-7320.47;4933716;28;45508;-83
2023/04/18 10:33:36;;;;;;;;;24.33;23.00;;;;;24.19;49.75;-5622.00;4937262;28;46084;-85
2023/04/18 10:36:11;;;;;;;;;22.67;18.33;;;;;23.89;48.68;-1548.41;4921974;28;45654;-85
2023/04/18 10:38:47;;;;;;;;;19.33;19.33;;;;;23.87;49.07;-869.31;4942755;28;45437;-85
2023/04/18 10:41:15;;;;;;;;;20.67;19.33;;;;;24.98;48.09;2538.75;4941334;28;45585;-85
2023/04/18 10:44:06;;;;;;;;;18.67;18.00;;;;;24.83;47.10;6624.66;4939252;28;46456;-85
2023/04/18 10:46:55;;;;;;;;;25.67;23.67;;;;;23.68;46.47;10349.88;4932440;28;45524;-89
2023/04/18 10:49:27;;;;;;;;;19.67;18.67;;;;;23.56;46.85;17670.75;4931853;28;45439;-84
2023/04/18 10:51:58;;;;;;;;;21.33;18.67;;;;;24.06;47.74;15813.16;4945274;28;46000;-84
2023/04/18 10:54:49;;;;;;;;;25.33;23.67;;;;;23.92;47.16;17173.41;4957078;28;46204;-84
2023/04/18 10:57:15;;;;;;;;;29.67;25.67;;;;;23.09;46.25;23463.81;4935799;28;45386;-84
2023/04/18 10:59:47;;;;;;;;;22.33;19.67;;;;;23.80;47.31;21412.31;4943511;28;45514;-84
2023/04/18 11:02:24;;;;;;;;;22.33;19.00;;;;;24.19;47.11;20197.09;4919879;28;45412;-84
2023/04/18 11:04:54;;;;;;;;;21.67;20.67;;;;;23.71;46.41;22094.56;4937279;28;46124;-83
2023/04/18 11:07:39;;;;;;;;;21.67;19.67;;;;;24.05;46.56;21163.34;4936249;28;45677;-85
2023/04/18 12:12:44;;;;;;;;;15.67;13.67;;;;;22.29;45.30;51509.56;5347567;23;46493;-90
2023/04/18 12:32:43;;;;;;;;;11.67;11.00;;;;;21.54;44.10;55456.09;4959345;23;45489;-90
2023/04/18 12:43:54;;;;;;;;;12.00;9.67;;;;;21.16;44.64;56151.63;5378978;23;71554;-85
2023/04/18 12:48:57;;;;;;;;;18.00;16.67;;;;;20.04;44.73;56069.38;5827072;23;45313;-87
2023/04/18 12:54:44;;;;;;;;;17.67;15.00;;;;;20.64;44.37;56660.00;4966107;23;45750;-86
2023/04/18 12:57:16;;;;;;;;;17.00;14.67;;;;;21.28;44.81;56507.06;4958791;28;45505;-87
2023/04/18 12:59:59;;;;;;;;;12.00;10.67;;;;;20.35;44.69;56075.03;4959545;28;45425;-87
2023/04/18 13:04:56;;;;;;;;;15.00;14.00;;;;;20.61;44.67;56667.25;5251123;23;71608;-88
2023/04/18 13:07:42;;;;;;;;;11.67;11.33;;;;;20.23;44.17;56871.75;4941655;28;45956;-87
2023/04/18 13:10:17;;;;;;;;;13.33;12.67;;;;;19.71;44.89;56931.50;4941800;28;45561;-87
2023/04/18 13:19:24;;;;;;;;;13.00;9.33;;;;;19.65;43.26;58971.72;5030023;23;45420;-88
2023/04/18 13:25:18;;;;;;;;;11.33;10.33;;;;;19.32;43.96;58543.16;4980369;23;45484;-88
2023/04/18 13:27:44;;;;;;;;;12.67;11.00;;;;;19.94;43.91;58543.13;4976648;28;45392;-87
2023/04/18 13:42:42;;;;;;;;;8.00;8.00;;;;;19.61;43.39;59262.50;4974618;23;45403;-86
2023/04/18 14:00:18;;;;;;;;;8.33;7.33;;;;;19.75;42.87;61174.66;4997245;28;45432;-85
2023/04/18 14:03:11;;;;;;;;;9.00;7.33;;;;;20.89;42.33;61416.34;4979447;28;45404;-85
2023/04/18 14:05:39;;;;;;;;;10.67;6.00;;;;;20.89;42.62;61749.06;4979347;28;45582;-85
2023/04/18 14:08:07;;;;;;;;;7.00;7.00;;;;;20.13;42.25;61745.00;5344181;23;45532;-86
2023/04/18 14:10:33;;;;;;;;;10.33;8.33;;;;;20.85;41.83;62402.19;4976892;28;46080;-87
2023/04/18 14:13:01;;;;;;;;;7.33;7.33;;;;;19.41;42.53;61894.50;4977379;28;45927;-85
2023/04/18 14:15:27;;;;;;;;;8.00;8.00;;;;;19.79;42.88;61776.16;4977545;28;45531;-85
2023/04/18 14:17:52;;;;;;;;;10.67;9.00;;;;;19.98;43.06;61683.97;4977470;28;45489;-84
2023/04/18 14:23:39;;;;;;;;;7.33;7.00;;;;;20.39;42.80;61854.84;4976931;28;45477;-85
2023/04/18 14:26:08;;;;;;;;;8.67;8.33;;;;;19.71;42.55;62119.00;4976793;28;45829;-84
2023/04/18 14:28:33;;;;;;;;;4.67;4.33;;;;;19.25;42.46;62378.41;4989093;23;45503;-85
2023/04/18 14:34:20;;;;;;;;;11.00;6.67;;;;;20.56;42.81;62626.78;4975992;28;45514;-86
2023/04/18 14:39:20;;;;;;;;;9.00;7.00;;;;;19.98;42.51;62892.53;4975343;28;46056;-85
2023/04/18 14:41:45;;;;;;;;;6.00;5.00;;;;;20.40;42.56;62797.16;4976914;28;45986;-84
2023/04/18 14:44:12;;;;;;;;;5.33;5.33;;;;;20.38;42.83;62816.44;4965729;28;45577;-84
2023/04/18 14:52:47;;;;;;;;;7.67;5.00;;;;;19.29;42.85;62727.50;5423022;23;45586;-85
2023/04/18 14:55:28;;;;;;;;;4.00;4.00;;;;;20.23;42.53;63012.50;4964678;28;45596;-86
2023/04/18 14:58:25;;;;;;;;;2.00;2.00;;;;;20.20;42.71;63242.50;4955113;28;45511;-85
2023/04/18 15:01:08;;;;;;;;;6.00;6.00;;;;;18.72;42.65;63307.03;4938086;28;45586;-86
2023/04/18 15:03:34;;;;;;;;;5.67;4.00;;;;;20.09;42.78;63407.38;4937672;28;45570;-86
2023/04/18 15:05:59;;;;;;;;;5.00;3.33;;;;;19.12;42.77;63237.38;4937760;28;45425;-86
2023/04/18 15:08:25;;;;;;;;;4.67;4.67;;;;;18.86;42.91;63112.63;4956005;28;45429;-86
2023/04/18 15:11:31;;;;;;;;;4.67;4.67;;;;;19.95;43.29;63333.63;4956499;28;45413;-86
2023/04/18 15:17:18;;;;;;;;;6.33;4.00;;;;;18.49;43.22;63381.31;5070050;23;45901;-87
2023/04/18 15:19:44;;;;;;;;;4.33;3.33;;;;;18.40;43.37;63330.78;4958748;28;45560;-87
2023/04/18 15:22:09;;;;;;;;;4.33;4.33;;;;;19.47;43.23;63279.97;4974992;28;45540;-85
2023/04/18 15:27:10;;;;;;;;;4.67;4.00;;;;;19.81;42.83;63506.97;5390111;23;47657;-85
2023/04/18 15:30:23;;;;;;;;;6.00;6.00;;;;;18.51;42.08;63843.50;4960379;28;45537;-88
2023/04/18 15:35:37;;;;;;;;;3.00;3.00;;;;;18.61;42.90;63901.59;5036785;23;45775;-86
2023/04/18 15:38:03;;;;;;;;;6.00;5.00;;;;;18.18;43.27;63639.19;4936918;28;45482;-87
2023/04/18 15:40:28;;;;;;;;;4.00;4.00;;;;;18.67;42.80;63541.75;4947314;28;45569;-86
2023/04/18 15:42:54;;;;;;;;;4.33;3.00;;;;;18.70;43.16;63657.41;4929941;28;45438;-87
2023/04/18 15:45:20;;;;;;;;;3.67;3.00;;;;;19.60;43.35;63878.25;4932987;28;47217;-87
2023/04/18 15:47:46;;;;;;;;;2.67;2.67;;;;;18.67;43.29;63732.22;5174045;23;45678;-85
2023/04/18 15:50:11;;;;;;;;;6.33;5.00;;;;;18.47;43.40;63803.75;4956621;28;45486;-86
2023/04/18 15:52:39;;;;;;;;;4.00;4.00;;;;;18.63;42.98;63812.84;5051267;23;45766;-86
2023/04/18 16:01:08;;;;;;;;;3.67;3.67;;;;;18.19;42.99;63803.34;5094397;23;1285573;-88
2023/04/18 16:03:44;;;;;;;;;5.67;4.00;;;;;19.40;43.07;63984.72;4992497;28;45544;-88
2023/04/18 16:06:25;;;;;;;;;3.67;3.67;;;;;18.80;43.38;64021.66;4965356;28;46933;-93
2023/04/18 16:11:26;;;;;;;;;3.67;3.67;;;;;19.32;43.35;63999.97;5513526;23;45471;-88
2023/04/18 16:23:19;;;;;;;;;3.00;3.00;;;;;17.99;44.05;64049.03;5468197;23;67621;-90
2023/04/18 16:40:54;;;;;;;;;4.00;3.00;;;;;19.06;44.57;63639.78;5149203;23;45398;-94
2023/04/18 16:43:35;;;;;;;;;4.00;4.00;;;;;18.52;44.40;63512.97;4974050;28;45793;-90
2023/04/18 16:46:15;;;;;;;;;3.00;3.00;;;;;17.49;44.94;63353.88;4966134;28;45477;-91
2023/04/18 16:48:41;;;;;;;;;3.00;3.00;;;;;18.48;44.49;63401.06;4984202;23;45440;-88
2023/04/18 16:51:06;;;;;;;;;5.67;4.00;;;;;18.98;44.48;63332.34;4983671;28;46435;-87
2023/04/18 16:53:34;;;;;;;;;2.33;2.00;;;;;18.88;44.85;63316.03;4990510;28;45777;-93
2023/04/18 16:56:00;;;;;;;;;3.00;3.00;;;;;18.97;45.09;63290.56;4980094;28;45550;-89
2023/04/18 16:58:31;;;;;;;;;3.00;3.00;;;;;18.75;45.24;63165.31;4978730;28;45804;-92
2023/04/18 17:00:56;;;;;;;;;4.33;3.00;;;;;18.48;45.12;63107.47;4987370;28;45748;-96
2023/04/18 17:03:28;;;;;;;;;2.00;2.00;;;;;18.01;45.05;62961.00;4989000;28;45532;-90
2023/04/18 17:05:54;;;;;;;;;2.67;2.67;;;;;18.37;45.55;62721.19;4990221;28;45538;-87
2023/04/18 17:08:19;;;;;;;;;4.00;2.00;;;;;17.63;45.72;62549.50;4982417;28;45480;-87
2023/04/18 17:10:45;;;;;;;;;4.00;3.33;;;;;18.72;45.73;62491.22;4992443;28;45416;-88
2023/04/18 17:13:10;;;;;;;;;5.00;5.00;;;;;18.69;45.24;62372.97;4978639;28;45482;-90
2023/04/18 17:15:37;;;;;;;;;9.33;7.00;;;;;18.06;45.76;62193.78;4980450;28;45991;-95
2023/04/18 17:18:02;;;;;;;;;9.00;6.67;;;;;17.86;45.71;62138.59;4982269;28;45527;-93
2023/04/18 17:20:30;;;;;;;;;6.00;5.00;;;;;18.26;45.71;62145.88;4986747;28;46201;-93
2023/04/18 17:22:56;;;;;;;;;6.00;6.00;;;;;18.26;46.14;62158.69;4971575;28;45409;-92
2023/04/18 17:25:27;;;;;;;;;6.00;6.00;;;;;18.79;45.83;61842.47;4984474;28;45655;-96
2023/04/18 17:28:08;;;;;;;;;4.67;4.67;;;;;18.01;47.23;59870.44;4985421;28;45772;-92
2023/04/18 17:30:33;;;;;;;;;10.00;7.00;;;;;17.88;49.13;55826.41;4977986;28;47929;-92
2023/04/18 17:33:40;;;;;;;;;8.67;7.67;;;;;18.62;51.21;46326.78;4986176;28;45609;-95
2023/04/18 17:39:15;;;;;;;;;3.00;3.00;;;;;17.02;51.70;42636.56;5001138;23;45700;-90
2023/04/18 17:41:41;;;;;;;;;3.33;3.33;;;;;17.99;52.44;38131.13;5079970;23;47219;-87
2023/04/18 17:44:07;;;;;;;;;6.67;5.00;;;;;18.17;53.26;33545.97;4961611;28;45827;-87
2023/04/18 17:46:57;;;;;;;;;2.33;2.33;;;;;18.09;53.34;33546.44;4954100;28;45953;-90
2023/04/18 17:49:22;;;;;;;;;5.00;4.00;;;;;17.53;53.52;32517.25;4969233;28;45717;-82
2023/04/18 17:54:22;;;;;;;;;4.00;4.00;;;;;16.36;53.60;26616.16;5106783;23;71980;-89
2023/04/18 17:57:26;;;;;;;;;5.00;4.00;;;;;16.34;54.08;25025.84;4988771;28;45453;-92
2023/04/18 17:59:52;;;;;;;;;3.67;3.67;;;;;16.87;54.61;22684.25;4905228;28;45386;-89
2023/04/18 18:02:27;;;;;;;;;5.00;5.00;;;;;17.21;54.44;21008.06;4999366;23;45626;-89
2023/04/18 18:04:52;;;;;;;;;4.00;3.00;;;;;17.75;55.45;16296.88;5176080;23;45986;-82
2023/04/18 18:07:21;;;;;;;;;6.33;5.00;;;;;17.32;55.59;15270.66;4972308;28;45646;-90
2023/04/18 18:26:57;;;;;;;;;4.67;4.67;;;;;16.14;56.28;9849.97;4988108;23;47063;-85
2023/04/18 18:29:34;;;;;;;;;5.33;5.33;;;;;17.06;56.36;9195.47;4974154;28;46991;-93
2023/04/18 18:32:48;;;;;;;;;6.00;5.00;;;;;15.74;56.72;8161.00;4967131;28;45506;-87
2023/04/18 18:35:28;;;;;;;;;4.67;4.67;;;;;17.05;56.53;9195.28;4952381;28;45898;-90
2023/04/18 18:40:59;;;;;;;;;7.00;6.33;;;;;15.67;56.14;9503.97;4972433;23;45421;-86
2023/04/18 18:44:06;;;;;;;;;6.00;5.00;;;;;15.69;56.58;8496.09;4956512;28;45412;-84
2023/04/18 18:46:31;;;;;;;;;7.67;6.00;;;;;16.88;57.14;6499.09;4892891;29;48269;-90
2023/04/18 18:48:56;;;;;;;;;6.33;4.33;;;;;16.07;56.96;7494.72;4892792;28;45530;-84
2023/04/18 18:51:57;;;;;;;;;5.00;5.00;;;;;15.47;57.04;5805.72;4895861;28;45526;-84
2023/04/18 18:54:24;;;;;;;;;4.33;4.33;;;;;16.63;57.15;6158.84;4891706;28;45787;-86
2023/04/18 18:56:53;;;;;;;;;5.00;5.00;;;;;15.52;57.20;4799.47;4895770;28;46379;-84
2023/04/18 18:59:18;;;;;;;;;5.67;4.33;;;;;17.09;57.11;5492.59;4899487;28;45581;-83
2023/04/18 19:01:52;;;;;;;;;4.00;4.00;;;;;16.02;57.17;5477.66;4900788;28;46570;-87
2023/04/18 19:04:18;;;;;;;;;6.00;6.00;;;;;15.49;57.27;4799.00;4902218;28;45862;-81
2023/04/18 19:06:52;;;;;;;;;7.67;6.00;;;;;17.04;57.30;4818.97;4899095;28;45599;-86
2023/04/18 19:14:51;;;;;;;;;7.00;6.00;;;;;15.91;57.10;5140.25;4975551;23;45705;-89
2023/04/18 19:20:39;;;;;;;;;6.00;6.00;;;;;15.97;57.32;4469.41;4963970;23;47989;-83
2023/04/18 19:23:07;;;;;;;;;14.33;9.33;;;;;15.68;57.22;4801.44;4946969;28;45476;-85
2023/04/18 19:25:33;;;;;;;;;7.67;7.67;;;;;15.48;57.04;5470.13;4968591;28;45483;-85
2023/04/18 19:28:07;;;;;;;;;8.67;7.67;;;;;16.53;57.41;5148.53;4971381;28;46235;-86
2023/04/18 19:30:32;;;;;;;;;11.00;9.00;;;;;16.44;57.31;5147.38;4966407;28;45887;-84
2023/04/18 19:32:58;;;;;;;;;11.00;10.00;;;;;16.44;57.17;5483.59;4973067;28;45718;-84
2023/04/18 19:35:32;;;;;;;;;9.00;9.00;;;;;16.01;56.58;5477.59;4974834;28;47207;-86
2023/04/18 19:38:15;;;;;;;;;10.67;9.33;;;;;16.98;56.94;5827.50;4967241;28;46237;-85
2023/04/18 19:40:41;;;;;;;;;18.67;17.00;;;;;15.70;56.86;5137.50;4953702;28;45607;-85
2023/04/18 19:43:06;;;;;;;;;10.33;8.67;;;;;15.69;57.18;6144.69;4957288;28;45424;-84
2023/04/18 19:46:03;;;;;;;;;11.00;11.00;;;;;16.94;56.97;5826.91;4957203;28;45842;-90
2023/04/18 19:48:46;;;;;;;;;12.33;9.67;;;;;15.49;56.93;6141.72;4955400;28;47158;-90
2023/04/18 19:51:11;;;;;;;;;4.67;4.67;;;;;16.42;56.65;6155.63;4956274;28;45967;-89
2023/04/18 19:53:42;;;;;;;;;11.00;9.67;;;;;15.29;56.83;6474.25;4998341;23;45449;-89
2023/04/18 19:56:09;;;;;;;;;6.00;5.67;;;;;15.84;56.71;6146.94;4954747;28;45780;-86
2023/04/18 20:04:37;;;;;;;;;10.33;9.33;;;;;16.85;57.07;4816.53;4980975;23;45490;-92
2023/04/18 20:12:05;;;;;;;;;11.33;6.67;;;;;16.83;57.34;4816.25;5239582;23;46284;-88
2023/04/18 20:14:50;;;;;;;;;4.00;4.00;;;;;16.81;57.56;4143.50;4944082;28;45690;-84
2023/04/18 20:17:15;;;;;;;;;10.00;8.00;;;;;15.76;57.33;4131.06;4943726;28;45553;-84
2023/04/18 20:19:41;;;;;;;;;8.33;7.33;;;;;16.65;57.63;4813.94;4945387;28;45561;-86
2023/04/18 20:22:15;;;;;;;;;12.00;7.67;;;;;16.71;57.04;4814.69;4951210;28;45513;-90
2023/04/18 20:24:40;;;;;;;;;10.67;8.33;;;;;16.79;57.17;4815.72;4966892;28;45519;-87
2023/04/18 20:28:00;;;;;;;;;12.67;10.33;;;;;16.78;57.18;4815.66;4967493;28;45618;-87
2023/04/18 20:33:47;;;;;;;;;8.33;8.33;;;;;16.76;57.50;4479.06;4873368;29;45528;-90
2023/04/18 20:36:12;;;;;;;;;8.67;7.67;;;;;16.67;57.50;4141.88;4871244;29;45576;-92
2023/04/18 20:39:25;;;;;;;;;11.00;9.67;;;;;16.72;57.47;4814.81;5572485;23;45456;-93
2023/04/18 20:41:52;;;;;;;;;10.00;9.33;;;;;15.43;57.54;4798.22;4968333;28;46737;-84
2023/04/18 20:44:30;;;;;;;;;9.33;8.67;;;;;15.29;57.17;4796.44;4967976;28;45668;-82
2023/04/18 20:46:56;;;;;;;;;5.33;5.33;;;;;16.71;57.38;4478.44;4992051;28;45574;-83
2023/04/18 20:49:21;;;;;;;;;9.33;8.67;;;;;15.15;57.66;5130.19;4984881;28;45567;-82
2023/04/18 20:51:46;;;;;;;;;8.33;8.33;;;;;15.82;57.19;4803.28;4981531;28;45581;-82
2023/04/18 20:54:12;;;;;;;;;10.33;9.33;;;;;16.67;57.55;4814.28;4993810;28;45493;-83
2023/04/18 20:59:20;;;;;;;;;8.67;8.67;;;;;16.46;57.50;4475.41;5576610;23;58403;-84
2023/04/18 21:01:45;;;;;;;;;10.33;9.33;;;;;15.57;57.08;5135.78;4988687;28;46236;-83
2023/04/18 21:04:11;;;;;;;;;9.33;7.67;;;;;16.47;56.79;5147.78;4977276;28;45477;-84
2023/04/18 21:06:36;;;;;;;;;7.33;7.33;;;;;16.64;57.52;5486.31;4974791;28;45451;-84
2023/04/18 21:09:35;;;;;;;;;10.67;9.33;;;;;16.64;57.09;5822.59;4977509;28;45454;-84
2023/04/18 21:12:04;;;;;;;;;11.00;9.33;;;;;16.11;56.67;5814.97;4984187;28;45504;-83
2023/04/18 21:14:30;;;;;;;;;13.00;9.67;;;;;16.58;56.63;5821.78;4976210;28;45600;-84
2023/04/18 21:16:56;;;;;;;;;9.33;7.33;;;;;16.63;57.30;5822.44;4989586;28;45420;-84
2023/04/18 21:19:22;;;;;;;;;10.00;9.00;;;;;16.35;56.79;6154.53;4984672;28;45564;-84
2023/04/18 21:21:47;;;;;;;;;9.33;9.00;;;;;16.38;57.05;6155.06;4978898;28;46197;-84
2023/04/18 21:24:12;;;;;;;;;9.33;9.33;;;;;16.44;57.06;6155.91;4990500;28;45515;-84
2023/04/18 21:26:37;;;;;;;;;9.67;9.67;;;;;16.59;57.25;6158.16;4983574;28;56393;-84
2023/04/18 21:29:03;;;;;;;;;8.00;8.00;;;;;16.18;57.36;6152.06;4992428;28;45401;-84
2023/04/18 21:31:31;;;;;;;;;10.33;10.33;;;;;16.19;57.01;6152.22;4991104;28;46622;-84
2023/04/18 21:33:58;;;;;;;;;9.33;9.33;;;;;16.27;57.38;6153.31;4990352;28;45449;-84
2023/04/18 21:36:27;;;;;;;;;10.33;9.00;;;;;16.39;57.33;6155.16;4985068;28;45559;-84
2023/04/18 21:38:54;;;;;;;;;8.67;8.67;;;;;16.26;56.83;6153.22;4990545;28;45579;-85
2023/04/18 21:41:20;;;;;;;;;10.33;10.00;;;;;15.70;56.91;6480.63;4996196;28;47441;-84
2023/04/18 21:43:46;;;;;;;;;7.67;7.67;;;;;16.32;56.69;6490.25;4989008;28;45421;-84
2023/04/18 21:46:11;;;;;;;;;9.67;9.67;;;;;16.37;56.78;6827.28;4977605;28;45563;-84
2023/04/18 21:48:38;;;;;;;;;9.33;9.33;;;;;15.31;57.27;6474.66;4977812;28;45731;-85
2023/04/18 21:51:04;;;;;;;;;12.67;9.33;;;;;15.77;56.89;6481.81;4992741;28;46967;-85
2023/04/18 21:53:29;;;;;;;;;9.67;9.67;;;;;15.63;57.23;6815.41;4975677;28;45493;-84
2023/04/18 21:55:54;;;;;;;;;9.33;9.33;;;;;14.88;56.97;6803.44;4989726;28;45417;-84
2023/04/18 21:58:19;;;;;;;;;8.00;7.33;;;;;16.46;56.95;6828.84;4997715;28;45599;-84
2023/04/18 22:00:45;;;;;;;;;9.00;9.00;;;;;16.45;57.13;6828.69;4997210;28;45917;-84
2023/04/18 22:05:38;;;;;;;;;8.33;8.33;;;;;15.60;56.86;6814.94;4976216;28;45492;-84
2023/04/18 22:08:04;;;;;;;;;9.00;8.00;;;;;16.26;57.06;7161.75;4977403;28;45551;-84
2023/04/18 22:10:29;;;;;;;;;11.67;10.00;;;;;15.61;56.94;7151.03;4976883;28;45633;-84
2023/04/18 22:12:55;;;;;;;;;10.67;10.33;;;;;15.67;56.76;7151.97;4959900;28;45454;-84
2023/04/18 22:15:21;;;;;;;;;9.33;8.33;;;;;16.37;57.10;7499.91;4977391;28;45514;-84
2023/04/18 22:17:49;;;;;;;;;11.00;9.33;;;;;16.09;56.77;7158.84;4977854;28;45496;-84
2023/04/18 22:20:16;;;;;;;;;9.00;7.00;;;;;14.98;56.66;7476.13;4976117;28;46511;-84
2023/04/18 22:22:41;;;;;;;;;8.33;8.33;;;;;15.53;57.16;7485.41;4976910;28;45488;-84
2023/04/18 22:25:10;;;;;;;;;10.00;10.00;;;;;15.47;57.16;7820.19;4977353;28;45491;-84
2023/04/18 22:27:35;;;;;;;;;11.67;10.67;;;;;14.62;56.73;7469.91;5020176;23;45508;-84
2023/04/18 22:30:01;;;;;;;;;9.33;9.33;;;;;16.25;56.90;7834.16;4985817;28;46377;-84
2023/04/18 22:32:54;;;;;;;;;10.33;9.33;;;;;16.22;56.80;7833.53;4996867;28;45428;-84
2023/04/18 22:35:20;;;;;;;;;16.33;14.67;;;;;15.32;57.15;7817.66;4997029;28;45473;-84
2023/04/18 22:37:45;;;;;;;;;15.33;12.33;;;;;16.16;56.84;8168.66;4996806;28;45393;-84
2023/04/18 22:40:11;;;;;;;;;16.67;13.00;;;;;15.20;56.42;8151.22;4976119;28;47060;-84
2023/04/18 22:42:37;;;;;;;;;14.33;14.33;;;;;15.29;56.67;8152.91;4979813;28;45438;-84
2023/04/18 22:45:03;;;;;;;;;15.33;14.33;;;;;15.69;57.23;7824.09;4996627;28;45396;-84
2023/04/18 22:50:51;;;;;;;;;15.67;13.67;;;;;14.50;57.25;8138.56;5143365;23;45643;-83
2023/04/18 22:53:16;;;;;;;;;11.67;11.33;;;;;15.94;57.03;8164.66;4976471;28;45503;-83
2023/04/18 22:55:43;;;;;;;;;11.33;11.33;;;;;15.20;57.55;8151.31;4976906;28;45514;-84
2023/04/18 22:58:12;;;;;;;;;9.33;9.33;;;;;15.62;57.54;8158.97;4966992;28;46094;-84
2023/04/18 23:00:40;;;;;;;;;12.67;10.33;;;;;15.06;57.40;7812.97;4967711;28;46229;-85
2023/04/18 23:03:05;;;;;;;;;10.33;10.33;;;;;14.98;57.63;7476.13;4976646;28;45750;-84
2023/04/18 23:06:02;;;;;;;;;10.67;10.67;;;;;15.82;57.57;7490.50;5069279;23;45931;-84
2023/04/18 23:08:27;;;;;;;;;16.00;14.67;;;;;14.64;57.99;7470.25;4976947;28;45504;-83